createdAt,value
2023-03-04T07:06:04.651Z,100356.31
2023-03-04T07:09:07.551Z,100356.31
2023-03-04T07:12:10.052Z,100349.91
2023-03-04T07:15:12.925Z,100355.72
2023-03-04T07:18:15.289Z,100359.66
2023-03-04T07:21:19.482Z,100351.66
2023-03-04T07:24:21.905Z,100361.47
2023-03-04T07:27:25.544Z,100352.56
2023-03-04T07:30:27.984Z,100351.78
2023-03-04T07:33:30.665Z,100355.72
2023-03-04T07:36:35.556Z,100348.25
2023-03-04T07:39:38.382Z,100343.16
2023-03-04T07:42:40.730Z,100338.72
2023-03-04T07:45:44.595Z,100341.84
2023-03-04T07:48:46.826Z,100342.37
2023-03-04T07:51:50.870Z,100334.53
2023-03-04T07:54:53.309Z,100333.88
2023-03-04T07:57:56.093Z,100330.19
2023-03-04T08:00:58.599Z,100334.84
2023-03-04T08:04:01.371Z,100331.34
2023-03-04T08:07:05.169Z,100330.53
2023-03-04T08:10:08.263Z,100329.09
2023-03-04T08:13:10.680Z,100331.59
2023-03-04T08:16:15.468Z,100323.62
2023-03-04T08:19:17.992Z,100325.28
2023-03-04T08:22:22.047Z,100316.00
2023-03-04T08:25:24.548Z,100314.09
2023-03-04T08:28:27.226Z,100315.06
2023-03-04T08:31:29.708Z,100311.69
2023-03-04T08:34:32.534Z,100317.38
2023-03-04T08:37:36.332Z,100313.81
2023-03-04T08:40:38.740Z,100304.84
2023-03-04T08:43:41.063Z,100302.47
2023-03-04T08:46:43.784Z,100316.28
2023-03-04T08:49:46.246Z,100306.78
2023-03-04T08:52:50.234Z,100300.12
2023-03-04T08:55:53.376Z,100303.84
2023-03-04T08:58:56.016Z,100306.78
2023-03-04T09:01:58.492Z,100304.06
2023-03-04T09:05:01.236Z,100299.00
2023-03-04T09:08:05.205Z,100287.78
2023-03-04T09:11:07.974Z,100288.37
2023-03-04T09:14:10.472Z,100286.28
2023-03-04T09:17:13.231Z,100278.34
2023-03-04T09:20:15.705Z,100273.47
2023-03-04T09:23:19.737Z,100269.84
2023-03-04T09:26:23.105Z,100270.38
2023-03-04T09:29:25.820Z,100271.56
2023-03-04T09:32:28.591Z,100267.22
2023-03-04T09:35:31.255Z,100259.78
2023-03-04T09:38:35.046Z,100252.78
2023-03-04T09:41:38.337Z,100263.03
2023-03-04T09:44:41.364Z,100254.59
2023-03-04T09:47:44.079Z,100244.41
2023-03-04T09:50:51.342Z,100249.25
2023-03-04T09:54:07.495Z,100237.94
2023-03-04T09:57:18.738Z,100237.25
2023-03-04T10:00:22.505Z,100232.88
2023-03-04T10:03:25.596Z,100221.59
2023-03-04T10:06:28.105Z,100218.31
2023-03-04T10:09:36.801Z,100223.41
2023-03-04T10:12:40.163Z,100218.03
2023-03-04T10:15:44.178Z,100220.53
2023-03-04T10:18:48.459Z,100216.66
2023-03-04T10:21:51.457Z,100220.13
2023-03-04T10:25:01.739Z,100208.94
2023-03-04T10:28:06.256Z,100216.09
2023-03-04T10:31:12.489Z,100213.34
2023-03-04T10:34:15.648Z,100215.84
2023-03-04T10:37:18.049Z,100210.56
2023-03-04T10:40:24.503Z,100197.78
2023-03-04T10:43:26.994Z,100188.81
2023-03-04T10:46:29.819Z,100193.37
2023-03-04T10:49:32.245Z,100193.69
2023-03-04T10:52:35.740Z,100191.16
2023-03-04T10:55:44.457Z,100184.22
2023-03-04T10:58:47.224Z,100179.53
2023-03-04T11:01:50.539Z,100176.50
2023-03-04T11:04:55.523Z,100170.91
2023-03-04T11:07:59.404Z,100168.16
2023-03-04T11:11:03.529Z,100159.56
2023-03-04T11:14:10.990Z,100164.78
2023-03-04T11:17:19.439Z,100155.16
2023-03-04T11:20:28.882Z,100149.25
